sensor_id;sensor_type;location;lat;lon;timestamp;P1;durP1;ratioP1;P2;durP2;ratioP2
73113;SDS011;61301;51.956;5.876;2022-11-20T00:03:38;6.55;;;4.78;;
73113;SDS011;61301;51.956;5.876;2022-11-20T00:06:05;5.80;;;3.63;;
73113;SDS011;61301;51.956;5.876;2022-11-20T00:08:33;4.30;;;3.33;;
73113;SDS011;61301;51.956;5.876;2022-11-20T00:11:03;3.50;;;2.58;;
73113;SDS011;61301;51.956;5.876;2022-11-20T00:13:31;4.18;;;2.45;;
73113;SDS011;61301;51.956;5.876;2022-11-20T00:15:58;4.28;;;2.70;;
73113;SDS011;61301;51.956;5.876;2022-11-20T00:18:25;5.15;;;3.83;;
73113;SDS011;61301;51.956;5.876;2022-11-20T00:20:52;5.40;;;3.55;;
73113;SDS011;61301;51.956;5.876;2022-11-20T00:23:18;4.57;;;2.92;;
73113;SDS011;61301;51.956;5.876;2022-11-20T00:25:45;4.22;;;3.00;;
73113;SDS011;61301;51.956;5.876;2022-11-20T00:28:11;4.18;;;2.75;;
73113;SDS011;61301;51.956;5.876;2022-11-20T00:30:37;7.03;;;5.25;;
73113;SDS011;61301;51.956;5.876;2022-11-20T00:33:03;7.80;;;5.90;;
73113;SDS011;61301;51.956;5.876;2022-11-20T00:35:29;10.68;;;6.38;;
73113;SDS011;61301;51.956;5.876;2022-11-20T00:37:55;7.20;;;4.40;;
73113;SDS011;61301;51.956;5.876;2022-11-20T00:40:21;3.08;;;2.70;;
73113;SDS011;61301;51.956;5.876;2022-11-20T00:42:47;9.40;;;6.30;;
73113;SDS011;61301;51.956;5.876;2022-11-20T00:45:13;7.85;;;5.65;;
73113;SDS011;61301;51.956;5.876;2022-11-20T00:47:39;4.00;;;2.95;;
73113;SDS011;61301;51.956;5.876;2022-11-20T00:50:05;4.55;;;2.65;;
73113;SDS011;61301;51.956;5.876;2022-11-20T00:52:31;5.05;;;2.85;;
73113;SDS011;61301;51.956;5.876;2022-11-20T00:54:57;5.47;;;2.45;;
73113;SDS011;61301;51.956;5.876;2022-11-20T00:57:23;4.35;;;2.83;;
73113;SDS011;61301;51.956;5.876;2022-11-20T00:59:49;9.30;;;6.22;;
73113;SDS011;61301;51.956;5.876;2022-11-20T01:02:15;12.25;;;8.80;;
73113;SDS011;61301;51.956;5.876;2022-11-20T01:04:42;11.25;;;6.50;;
73113;SDS011;61301;51.956;5.876;2022-11-20T01:07:08;5.88;;;3.88;;
73113;SDS011;61301;51.956;5.876;2022-11-20T01:09:34;4.68;;;3.70;;
73113;SDS011;61301;51.956;5.876;2022-11-20T01:12:00;5.15;;;2.95;;
73113;SDS011;61301;51.956;5.876;2022-11-20T01:14:26;4.28;;;2.70;;
73113;SDS011;61301;51.956;5.876;2022-11-20T01:16:52;3.55;;;2.70;;
73113;SDS011;61301;51.956;5.876;2022-11-20T01:19:19;3.05;;;2.00;;
73113;SDS011;61301;51.956;5.876;2022-11-20T01:21:48;4.18;;;2.45;;
73113;SDS011;61301;51.956;5.876;2022-11-20T01:24:16;3.85;;;2.35;;
73113;SDS011;61301;51.956;5.876;2022-11-20T01:26:44;5.40;;;3.78;;
73113;SDS011;61301;51.956;5.876;2022-11-20T01:29:13;9.13;;;6.32;;
73113;SDS011;61301;51.956;5.876;2022-11-20T01:31:41;7.22;;;4.45;;
73113;SDS011;61301;51.956;5.876;2022-11-20T01:34:12;6.75;;;4.47;;
73113;SDS011;61301;51.956;5.876;2022-11-20T01:36:40;5.40;;;3.33;;
73113;SDS011;61301;51.956;5.876;2022-11-20T01:39:15;4.60;;;3.10;;
73113;SDS011;61301;51.956;5.876;2022-11-20T01:41:45;4.45;;;3.20;;
73113;SDS011;61301;51.956;5.876;2022-11-20T01:47:21;8.85;;;5.95;;
73113;SDS011;61301;51.956;5.876;2022-11-20T01:50:21;5.95;;;4.00;;
73113;SDS011;61301;51.956;5.876;2022-11-20T01:53:01;3.88;;;2.67;;
73113;SDS011;61301;51.956;5.876;2022-11-20T01:55:37;3.45;;;2.03;;
73113;SDS011;61301;51.956;5.876;2022-11-20T01:58:07;8.18;;;5.22;;
73113;SDS011;61301;51.956;5.876;2022-11-20T02:00:34;9.07;;;6.75;;
73113;SDS011;61301;51.956;5.876;2022-11-20T02:03:01;11.95;;;8.35;;
73113;SDS011;61301;51.956;5.876;2022-11-20T02:08:37;5.03;;;3.00;;
73113;SDS011;61301;51.956;5.876;2022-11-20T02:11:04;8.50;;;6.18;;
73113;SDS011;61301;51.956;5.876;2022-11-20T02:13:30;6.15;;;3.58;;
73113;SDS011;61301;51.956;5.876;2022-11-20T02:16:10;5.80;;;3.85;;
73113;SDS011;61301;51.956;5.876;2022-11-20T02:18:38;4.05;;;2.88;;
73113;SDS011;61301;51.956;5.876;2022-11-20T02:24:17;3.65;;;2.65;;
73113;SDS011;61301;51.956;5.876;2022-11-20T02:29:17;3.53;;;2.20;;
73113;SDS011;61301;51.956;5.876;2022-11-20T02:31:48;3.47;;;2.38;;
73113;SDS011;61301;51.956;5.876;2022-11-20T02:34:14;4.40;;;3.45;;
73113;SDS011;61301;51.956;5.876;2022-11-20T02:36:40;11.82;;;7.72;;
73113;SDS011;61301;51.956;5.876;2022-11-20T02:39:07;11.15;;;8.73;;
73113;SDS011;61301;51.956;5.876;2022-11-20T02:41:36;8.57;;;5.97;;
73113;SDS011;61301;51.956;5.876;2022-11-20T02:44:03;5.05;;;3.55;;
73113;SDS011;61301;51.956;5.876;2022-11-20T02:46:30;4.32;;;2.25;;
73113;SDS011;61301;51.956;5.876;2022-11-20T02:48:56;8.73;;;5.57;;
73113;SDS011;61301;51.956;5.876;2022-11-20T02:51:22;10.18;;;6.78;;
73113;SDS011;61301;51.956;5.876;2022-11-20T02:53:49;5.45;;;4.13;;
73113;SDS011;61301;51.956;5.876;2022-11-20T02:56:15;5.45;;;3.55;;
73113;SDS011;61301;51.956;5.876;2022-11-20T02:58:41;3.63;;;2.28;;
73113;SDS011;61301;51.956;5.876;2022-11-20T03:01:07;3.60;;;2.58;;
73113;SDS011;61301;51.956;5.876;2022-11-20T03:03:33;3.15;;;2.22;;
73113;SDS011;61301;51.956;5.876;2022-11-20T03:05:59;3.95;;;2.60;;
73113;SDS011;61301;51.956;5.876;2022-11-20T03:08:25;2.78;;;2.55;;
73113;SDS011;61301;51.956;5.876;2022-11-20T03:10:51;3.20;;;2.28;;
73113;SDS011;61301;51.956;5.876;2022-11-20T03:13:17;3.00;;;2.08;;
73113;SDS011;61301;51.956;5.876;2022-11-20T03:15:43;3.08;;;2.08;;
73113;SDS011;61301;51.956;5.876;2022-11-20T03:18:09;2.55;;;2.10;;
73113;SDS011;61301;51.956;5.876;2022-11-20T03:20:35;2.70;;;2.15;;
73113;SDS011;61301;51.956;5.876;2022-11-20T03:23:01;4.57;;;3.22;;
73113;SDS011;61301;51.956;5.876;2022-11-20T03:25:27;4.60;;;3.47;;
73113;SDS011;61301;51.956;5.876;2022-11-20T03:27:54;4.65;;;3.08;;
73113;SDS011;61301;51.956;5.876;2022-11-20T03:30:20;3.47;;;2.33;;
73113;SDS011;61301;51.956;5.876;2022-11-20T03:32:46;4.97;;;3.25;;
73113;SDS011;61301;51.956;5.876;2022-11-20T03:35:12;5.82;;;4.30;;
73113;SDS011;61301;51.956;5.876;2022-11-20T03:37:38;8.25;;;5.63;;
73113;SDS011;61301;51.956;5.876;2022-11-20T03:40:04;10.10;;;6.28;;
73113;SDS011;61301;51.956;5.876;2022-11-20T03:42:31;8.25;;;5.90;;
73113;SDS011;61301;51.956;5.876;2022-11-20T03:45:14;5.00;;;3.58;;
73113;SDS011;61301;51.956;5.876;2022-11-20T03:47:43;4.68;;;2.88;;
73113;SDS011;61301;51.956;5.876;2022-11-20T03:50:11;4.32;;;2.70;;
73113;SDS011;61301;51.956;5.876;2022-11-20T03:52:40;3.53;;;2.50;;
73113;SDS011;61301;51.956;5.876;2022-11-20T03:55:07;5.82;;;4.20;;
73113;SDS011;61301;51.956;5.876;2022-11-20T03:57:33;7.30;;;5.35;;
73113;SDS011;61301;51.956;5.876;2022-11-20T03:59:59;5.90;;;3.95;;
73113;SDS011;61301;51.956;5.876;2022-11-20T04:02:25;4.32;;;2.45;;
73113;SDS011;61301;51.956;5.876;2022-11-20T04:04:51;4.43;;;2.60;;
73113;SDS011;61301;51.956;5.876;2022-11-20T04:07:17;7.25;;;4.78;;
73113;SDS011;61301;51.956;5.876;2022-11-20T04:09:43;11.82;;;8.38;;
73113;SDS011;61301;51.956;5.876;2022-11-20T04:12:09;7.22;;;5.05;;
73113;SDS011;61301;51.956;5.876;2022-11-20T04:14:35;7.55;;;4.60;;
73113;SDS011;61301;51.956;5.876;2022-11-20T04:17:01;4.43;;;3.25;;
73113;SDS011;61301;51.956;5.876;2022-11-20T04:19:28;4.82;;;3.17;;
73113;SDS011;61301;51.956;5.876;2022-11-20T04:21:54;4.07;;;3.15;;
73113;SDS011;61301;51.956;5.876;2022-11-20T04:24:20;3.83;;;2.08;;
73113;SDS011;61301;51.956;5.876;2022-11-20T04:26:46;3.78;;;2.80;;
73113;SDS011;61301;51.956;5.876;2022-11-20T04:29:12;4.25;;;2.95;;
73113;SDS011;61301;51.956;5.876;2022-11-20T04:31:38;4.30;;;2.95;;
73113;SDS011;61301;51.956;5.876;2022-11-20T04:34:05;3.38;;;2.33;;
73113;SDS011;61301;51.956;5.876;2022-11-20T04:36:32;6.05;;;4.75;;
73113;SDS011;61301;51.956;5.876;2022-11-20T04:38:59;5.68;;;3.67;;
73113;SDS011;61301;51.956;5.876;2022-11-20T04:41:28;4.50;;;3.17;;
73113;SDS011;61301;51.956;5.876;2022-11-20T04:43:57;4.15;;;2.70;;
73113;SDS011;61301;51.956;5.876;2022-11-20T04:46:30;8.68;;;5.25;;
73113;SDS011;61301;51.956;5.876;2022-11-20T04:48:58;11.23;;;5.38;;
73113;SDS011;61301;51.956;5.876;2022-11-20T04:51:24;5.07;;;4.00;;
73113;SDS011;61301;51.956;5.876;2022-11-20T04:53:50;4.55;;;3.75;;
73113;SDS011;61301;51.956;5.876;2022-11-20T04:56:16;4.22;;;3.05;;
73113;SDS011;61301;51.956;5.876;2022-11-20T04:58:43;3.65;;;2.65;;
73113;SDS011;61301;51.956;5.876;2022-11-20T05:01:13;3.50;;;2.65;;
73113;SDS011;61301;51.956;5.876;2022-11-20T05:03:41;4.07;;;2.92;;
73113;SDS011;61301;51.956;5.876;2022-11-20T05:06:07;6.47;;;4.57;;
73113;SDS011;61301;51.956;5.876;2022-11-20T05:08:34;5.07;;;3.00;;
73113;SDS011;61301;51.956;5.876;2022-11-20T05:11:01;3.47;;;2.38;;
73113;SDS011;61301;51.956;5.876;2022-11-20T05:13:32;3.55;;;2.08;;
73113;SDS011;61301;51.956;5.876;2022-11-20T05:16:01;5.60;;;3.75;;
73113;SDS011;61301;51.956;5.876;2022-11-20T05:18:35;5.90;;;3.25;;
73113;SDS011;61301;51.956;5.876;2022-11-20T05:21:02;5.75;;;3.30;;
73113;SDS011;61301;51.956;5.876;2022-11-20T05:23:29;3.20;;;2.45;;
73113;SDS011;61301;51.956;5.876;2022-11-20T05:25:56;3.50;;;2.28;;
73113;SDS011;61301;51.956;5.876;2022-11-20T05:28:23;2.80;;;2.20;;
73113;SDS011;61301;51.956;5.876;2022-11-20T05:30:50;2.65;;;1.70;;
73113;SDS011;61301;51.956;5.876;2022-11-20T05:33:16;7.07;;;5.55;;
73113;SDS011;61301;51.956;5.876;2022-11-20T05:35:43;4.65;;;3.60;;
73113;SDS011;61301;51.956;5.876;2022-11-20T05:38:09;5.35;;;3.88;;
73113;SDS011;61301;51.956;5.876;2022-11-20T05:40:35;3.83;;;2.80;;
73113;SDS011;61301;51.956;5.876;2022-11-20T05:43:01;3.67;;;2.47;;
73113;SDS011;61301;51.956;5.876;2022-11-20T05:45:27;7.82;;;5.13;;
73113;SDS011;61301;51.956;5.876;2022-11-20T05:47:57;5.32;;;3.65;;
73113;SDS011;61301;51.956;5.876;2022-11-20T05:50:24;5.20;;;2.67;;
73113;SDS011;61301;51.956;5.876;2022-11-20T05:52:50;5.03;;;2.78;;
73113;SDS011;61301;51.956;5.876;2022-11-20T05:55:16;3.90;;;2.95;;
73113;SDS011;61301;51.956;5.876;2022-11-20T05:57:42;6.15;;;3.50;;
73113;SDS011;61301;51.956;5.876;2022-11-20T06:00:08;7.65;;;4.35;;
73113;SDS011;61301;51.956;5.876;2022-11-20T06:02:35;4.95;;;3.10;;
73113;SDS011;61301;51.956;5.876;2022-11-20T06:05:01;9.10;;;6.85;;
73113;SDS011;61301;51.956;5.876;2022-11-20T06:07:28;7.30;;;4.38;;
73113;SDS011;61301;51.956;5.876;2022-11-20T06:09:54;5.53;;;3.22;;
73113;SDS011;61301;51.956;5.876;2022-11-20T06:12:20;6.40;;;4.38;;
73113;SDS011;61301;51.956;5.876;2022-11-20T06:14:46;3.30;;;2.90;;
73113;SDS011;61301;51.956;5.876;2022-11-20T06:17:12;9.70;;;6.20;;
73113;SDS011;61301;51.956;5.876;2022-11-20T06:19:38;10.95;;;7.22;;
73113;SDS011;61301;51.956;5.876;2022-11-20T06:22:04;10.00;;;7.22;;
73113;SDS011;61301;51.956;5.876;2022-11-20T06:24:30;9.18;;;6.25;;
73113;SDS011;61301;51.956;5.876;2022-11-20T06:26:56;6.00;;;4.05;;
73113;SDS011;61301;51.956;5.876;2022-11-20T06:29:22;5.13;;;3.22;;
73113;SDS011;61301;51.956;5.876;2022-11-20T06:31:48;2.80;;;2.05;;
73113;SDS011;61301;51.956;5.876;2022-11-20T06:34:14;4.10;;;3.15;;
73113;SDS011;61301;51.956;5.876;2022-11-20T06:36:40;3.13;;;2.45;;
73113;SDS011;61301;51.956;5.876;2022-11-20T06:39:06;5.57;;;4.00;;
73113;SDS011;61301;51.956;5.876;2022-11-20T06:41:32;6.82;;;4.65;;
73113;SDS011;61301;51.956;5.876;2022-11-20T06:43:58;4.70;;;3.13;;
73113;SDS011;61301;51.956;5.876;2022-11-20T06:46:24;5.15;;;4.15;;
73113;SDS011;61301;51.956;5.876;2022-11-20T06:48:50;3.65;;;2.70;;
73113;SDS011;61301;51.956;5.876;2022-11-20T06:51:16;5.43;;;3.75;;
73113;SDS011;61301;51.956;5.876;2022-11-20T06:53:42;4.03;;;2.58;;
73113;SDS011;61301;51.956;5.876;2022-11-20T06:56:08;7.13;;;4.75;;
73113;SDS011;61301;51.956;5.876;2022-11-20T06:58:35;4.72;;;3.33;;
73113;SDS011;61301;51.956;5.876;2022-11-20T07:01:03;4.38;;;2.85;;
73113;SDS011;61301;51.956;5.876;2022-11-20T07:03:32;6.07;;;4.00;;
73113;SDS011;61301;51.956;5.876;2022-11-20T07:05:58;4.38;;;3.05;;
73113;SDS011;61301;51.956;5.876;2022-11-20T07:08:26;4.95;;;3.15;;
73113;SDS011;61301;51.956;5.876;2022-11-20T07:10:52;4.40;;;2.92;;
73113;SDS011;61301;51.956;5.876;2022-11-20T07:13:18;4.30;;;2.83;;
73113;SDS011;61301;51.956;5.876;2022-11-20T07:15:44;3.17;;;2.20;;
73113;SDS011;61301;51.956;5.876;2022-11-20T07:18:10;6.03;;;3.75;;
73113;SDS011;61301;51.956;5.876;2022-11-20T07:20:36;4.45;;;3.28;;
73113;SDS011;61301;51.956;5.876;2022-11-20T07:23:02;4.10;;;2.65;;
73113;SDS011;61301;51.956;5.876;2022-11-20T07:25:28;4.35;;;2.83;;
73113;SDS011;61301;51.956;5.876;2022-11-20T07:27:59;3.10;;;2.17;;
73113;SDS011;61301;51.956;5.876;2022-11-20T07:30:26;3.45;;;2.60;;
73113;SDS011;61301;51.956;5.876;2022-11-20T07:32:53;5.45;;;3.55;;
73113;SDS011;61301;51.956;5.876;2022-11-20T07:35:20;3.83;;;2.50;;
73113;SDS011;61301;51.956;5.876;2022-11-20T07:37:46;3.63;;;2.60;;
73113;SDS011;61301;51.956;5.876;2022-11-20T07:40:12;3.38;;;2.72;;
73113;SDS011;61301;51.956;5.876;2022-11-20T07:42:39;5.95;;;4.18;;
73113;SDS011;61301;51.956;5.876;2022-11-20T07:45:12;5.70;;;4.03;;
73113;SDS011;61301;51.956;5.876;2022-11-20T07:47:38;5.43;;;4.35;;
73113;SDS011;61301;51.956;5.876;2022-11-20T07:50:04;5.38;;;4.03;;
73113;SDS011;61301;51.956;5.876;2022-11-20T07:52:30;7.20;;;4.00;;
73113;SDS011;61301;51.956;5.876;2022-11-20T07:54:56;7.75;;;5.88;;
73113;SDS011;61301;51.956;5.876;2022-11-20T07:57:22;6.88;;;4.50;;
73113;SDS011;61301;51.956;5.876;2022-11-20T07:59:48;8.05;;;5.28;;
73113;SDS011;61301;51.956;5.876;2022-11-20T08:02:14;6.95;;;5.47;;
73113;SDS011;61301;51.956;5.876;2022-11-20T08:04:40;5.47;;;4.10;;
73113;SDS011;61301;51.956;5.876;2022-11-20T08:07:06;6.78;;;5.28;;
73113;SDS011;61301;51.956;5.876;2022-11-20T08:09:32;10.18;;;7.70;;
73113;SDS011;61301;51.956;5.876;2022-11-20T08:11:58;9.25;;;7.10;;
73113;SDS011;61301;51.956;5.876;2022-11-20T08:14:42;6.68;;;4.97;;
73113;SDS011;61301;51.956;5.876;2022-11-20T08:17:08;8.73;;;6.45;;
73113;SDS011;61301;51.956;5.876;2022-11-20T08:19:35;8.52;;;6.30;;
73113;SDS011;61301;51.956;5.876;2022-11-20T08:22:01;11.48;;;8.02;;
73113;SDS011;61301;51.956;5.876;2022-11-20T08:24:27;10.88;;;7.78;;
73113;SDS011;61301;51.956;5.876;2022-11-20T08:26:53;10.73;;;7.10;;
73113;SDS011;61301;51.956;5.876;2022-11-20T08:29:19;10.07;;;6.80;;
73113;SDS011;61301;51.956;5.876;2022-11-20T08:31:45;9.98;;;8.00;;
73113;SDS011;61301;51.956;5.876;2022-11-20T08:34:11;8.02;;;5.90;;
73113;SDS011;61301;51.956;5.876;2022-11-20T08:36:37;9.70;;;6.60;;
73113;SDS011;61301;51.956;5.876;2022-11-20T08:39:03;8.55;;;6.45;;
73113;SDS011;61301;51.956;5.876;2022-11-20T08:41:29;12.43;;;8.60;;
73113;SDS011;61301;51.956;5.876;2022-11-20T08:43:59;17.50;;;12.23;;
73113;SDS011;61301;51.956;5.876;2022-11-20T08:46:33;18.38;;;13.10;;
73113;SDS011;61301;51.956;5.876;2022-11-20T08:49:05;18.20;;;13.32;;
73113;SDS011;61301;51.956;5.876;2022-11-20T08:51:32;16.17;;;11.40;;
73113;SDS011;61301;51.956;5.876;2022-11-20T08:53:58;11.73;;;8.10;;
73113;SDS011;61301;51.956;5.876;2022-11-20T08:56:24;19.40;;;12.35;;
73113;SDS011;61301;51.956;5.876;2022-11-20T08:58:50;16.83;;;11.70;;
73113;SDS011;61301;51.956;5.876;2022-11-20T09:01:21;18.80;;;13.05;;
73113;SDS011;61301;51.956;5.876;2022-11-20T09:03:48;18.60;;;12.85;;
73113;SDS011;61301;51.956;5.876;2022-11-20T09:06:14;9.82;;;7.25;;
73113;SDS011;61301;51.956;5.876;2022-11-20T09:08:41;14.05;;;10.07;;
73113;SDS011;61301;51.956;5.876;2022-11-20T09:11:07;14.95;;;10.55;;
73113;SDS011;61301;51.956;5.876;2022-11-20T09:13:34;13.63;;;8.90;;
73113;SDS011;61301;51.956;5.876;2022-11-20T09:16:02;17.42;;;12.55;;
73113;SDS011;61301;51.956;5.876;2022-11-20T09:18:33;19.50;;;12.73;;
73113;SDS011;61301;51.956;5.876;2022-11-20T09:21:07;18.83;;;13.70;;
73113;SDS011;61301;51.956;5.876;2022-11-20T09:23:38;20.15;;;13.57;;
73113;SDS011;61301;51.956;5.876;2022-11-20T09:26:05;18.40;;;12.60;;
73113;SDS011;61301;51.956;5.876;2022-11-20T09:28:32;18.50;;;12.65;;
73113;SDS011;61301;51.956;5.876;2022-11-20T09:30:59;16.90;;;12.63;;
73113;SDS011;61301;51.956;5.876;2022-11-20T09:33:25;12.68;;;9.10;;
73113;SDS011;61301;51.956;5.876;2022-11-20T09:35:51;11.63;;;7.35;;
73113;SDS011;61301;51.956;5.876;2022-11-20T09:38:18;6.45;;;4.32;;
73113;SDS011;61301;51.956;5.876;2022-11-20T09:40:45;9.85;;;7.28;;
73113;SDS011;61301;51.956;5.876;2022-11-20T09:45:58;11.45;;;7.70;;
73113;SDS011;61301;51.956;5.876;2022-11-20T09:54:16;18.50;;;13.00;;
73113;SDS011;61301;51.956;5.876;2022-11-20T09:56:50;20.33;;;12.23;;
73113;SDS011;61301;51.956;5.876;2022-11-20T09:59:31;21.05;;;13.70;;
73113;SDS011;61301;51.956;5.876;2022-11-20T10:02:01;11.43;;;8.25;;
73113;SDS011;61301;51.956;5.876;2022-11-20T10:04:32;11.88;;;8.52;;
73113;SDS011;61301;51.956;5.876;2022-11-20T10:07:07;10.00;;;6.60;;
73113;SDS011;61301;51.956;5.876;2022-11-20T10:09:43;8.48;;;5.93;;
73113;SDS011;61301;51.956;5.876;2022-11-20T10:25:58;14.30;;;9.90;;
73113;SDS011;61301;51.956;5.876;2022-11-20T10:28:48;14.75;;;10.55;;
73113;SDS011;61301;51.956;5.876;2022-11-20T10:31:26;14.48;;;9.35;;
73113;SDS011;61301;51.956;5.876;2022-11-20T10:34:16;14.43;;;10.68;;
73113;SDS011;61301;51.956;5.876;2022-11-20T10:36:55;11.73;;;8.77;;
73113;SDS011;61301;51.956;5.876;2022-11-20T10:39:35;15.48;;;10.80;;
73113;SDS011;61301;51.956;5.876;2022-11-20T10:42:08;13.98;;;10.27;;
73113;SDS011;61301;51.956;5.876;2022-11-20T10:44:42;17.17;;;11.82;;
73113;SDS011;61301;51.956;5.876;2022-11-20T10:47:26;15.98;;;8.80;;
73113;SDS011;61301;51.956;5.876;2022-11-20T10:49:55;14.80;;;9.00;;
73113;SDS011;61301;51.956;5.876;2022-11-20T10:52:31;19.33;;;13.02;;
73113;SDS011;61301;51.956;5.876;2022-11-20T10:55:17;19.08;;;14.15;;
73113;SDS011;61301;51.956;5.876;2022-11-20T10:58:04;21.27;;;14.32;;
73113;SDS011;61301;51.956;5.876;2022-11-20T11:00:33;21.30;;;14.63;;
73113;SDS011;61301;51.956;5.876;2022-11-20T11:02:59;19.90;;;13.82;;
73113;SDS011;61301;51.956;5.876;2022-11-20T11:05:41;17.77;;;11.63;;
73113;SDS011;61301;51.956;5.876;2022-11-20T11:08:15;15.30;;;9.85;;
73113;SDS011;61301;51.956;5.876;2022-11-20T11:13:26;17.13;;;11.57;;
73113;SDS011;61301;51.956;5.876;2022-11-20T11:15:54;12.95;;;9.07;;
73113;SDS011;61301;51.956;5.876;2022-11-20T11:18:30;24.00;;;14.77;;
73113;SDS011;61301;51.956;5.876;2022-11-20T11:20:59;19.38;;;13.65;;
73113;SDS011;61301;51.956;5.876;2022-11-20T11:23:34;22.25;;;15.50;;
73113;SDS011;61301;51.956;5.876;2022-11-20T11:26:04;19.98;;;13.27;;
73113;SDS011;61301;51.956;5.876;2022-11-20T11:28:32;17.90;;;11.80;;
73113;SDS011;61301;51.956;5.876;2022-11-20T11:31:00;22.88;;;16.33;;
73113;SDS011;61301;51.956;5.876;2022-11-20T11:33:27;22.88;;;16.23;;
73113;SDS011;61301;51.956;5.876;2022-11-20T11:35:55;22.02;;;15.07;;
73113;SDS011;61301;51.956;5.876;2022-11-20T11:38:29;21.38;;;15.13;;
73113;SDS011;61301;51.956;5.876;2022-11-20T11:41:08;19.63;;;12.68;;
73113;SDS011;61301;51.956;5.876;2022-11-20T11:43:38;19.73;;;14.15;;
73113;SDS011;61301;51.956;5.876;2022-11-20T11:46:32;23.63;;;15.65;;
73113;SDS011;61301;51.956;5.876;2022-11-20T12:02:37;19.73;;;12.57;;
73113;SDS011;61301;51.956;5.876;2022-11-20T12:05:18;22.08;;;16.20;;
73113;SDS011;61301;51.956;5.876;2022-11-20T12:07:59;19.17;;;14.00;;
73113;SDS011;61301;51.956;5.876;2022-11-20T12:16:09;21.83;;;14.82;;
73113;SDS011;61301;51.956;5.876;2022-11-20T12:18:38;25.17;;;17.60;;
73113;SDS011;61301;51.956;5.876;2022-11-20T12:29:31;24.05;;;17.67;;
73113;SDS011;61301;51.956;5.876;2022-11-20T12:43:19;28.08;;;19.55;;
73113;SDS011;61301;51.956;5.876;2022-11-20T12:46:41;20.13;;;14.07;;
73113;SDS011;61301;51.956;5.876;2022-11-20T12:51:51;19.50;;;15.23;;
73113;SDS011;61301;51.956;5.876;2022-11-20T13:05:43;23.15;;;17.20;;
73113;SDS011;61301;51.956;5.876;2022-11-20T13:08:43;18.58;;;14.32;;
73113;SDS011;61301;51.956;5.876;2022-11-20T13:11:19;15.68;;;11.68;;
73113;SDS011;61301;51.956;5.876;2022-11-20T13:17:04;17.00;;;12.88;;
73113;SDS011;61301;51.956;5.876;2022-11-20T13:19:37;21.83;;;15.93;;
73113;SDS011;61301;51.956;5.876;2022-11-20T13:22:04;21.10;;;16.55;;
73113;SDS011;61301;51.956;5.876;2022-11-20T13:24:30;23.67;;;15.15;;
73113;SDS011;61301;51.956;5.876;2022-11-20T13:27:05;21.50;;;15.30;;
73113;SDS011;61301;51.956;5.876;2022-11-20T13:29:35;23.85;;;16.70;;
73113;SDS011;61301;51.956;5.876;2022-11-20T13:32:18;20.15;;;15.35;;
73113;SDS011;61301;51.956;5.876;2022-11-20T13:34:56;22.85;;;17.20;;
73113;SDS011;61301;51.956;5.876;2022-11-20T13:37:29;26.10;;;19.35;;
73113;SDS011;61301;51.956;5.876;2022-11-20T13:40:05;26.20;;;18.85;;
73113;SDS011;61301;51.956;5.876;2022-11-20T13:42:35;26.83;;;17.75;;
73113;SDS011;61301;51.956;5.876;2022-11-20T13:45:09;24.00;;;16.67;;
73113;SDS011;61301;51.956;5.876;2022-11-20T13:47:47;23.10;;;16.95;;
73113;SDS011;61301;51.956;5.876;2022-11-20T13:50:14;22.05;;;15.15;;
73113;SDS011;61301;51.956;5.876;2022-11-20T13:52:45;26.92;;;19.15;;
73113;SDS011;61301;51.956;5.876;2022-11-20T13:55:36;29.48;;;21.15;;
73113;SDS011;61301;51.956;5.876;2022-11-20T14:01:24;29.02;;;19.45;;
73113;SDS011;61301;51.956;5.876;2022-11-20T14:03:35;28.88;;;21.20;;
73113;SDS011;61301;51.956;5.876;2022-11-20T14:06:02;24.65;;;16.40;;
73113;SDS011;61301;51.956;5.876;2022-11-20T14:11:12;27.27;;;18.20;;
73113;SDS011;61301;51.956;5.876;2022-11-20T14:13:49;25.73;;;18.08;;
73113;SDS011;61301;51.956;5.876;2022-11-20T14:16:36;24.58;;;16.67;;
73113;SDS011;61301;51.956;5.876;2022-11-20T14:24:13;29.15;;;21.35;;
73113;SDS011;61301;51.956;5.876;2022-11-20T14:26:43;31.63;;;21.70;;
73113;SDS011;61301;51.956;5.876;2022-11-20T14:29:14;34.13;;;22.63;;
73113;SDS011;61301;51.956;5.876;2022-11-20T14:31:45;34.33;;;21.92;;
73113;SDS011;61301;51.956;5.876;2022-11-20T14:34:14;32.45;;;21.33;;
73113;SDS011;61301;51.956;5.876;2022-11-20T14:36:43;22.73;;;14.93;;
73113;SDS011;61301;51.956;5.876;2022-11-20T14:39:24;27.52;;;18.80;;
73113;SDS011;61301;51.956;5.876;2022-11-20T14:42:01;29.10;;;19.05;;
73113;SDS011;61301;51.956;5.876;2022-11-20T14:44:39;23.98;;;16.50;;
73113;SDS011;61301;51.956;5.876;2022-11-20T14:47:06;28.55;;;18.15;;
73113;SDS011;61301;51.956;5.876;2022-11-20T14:49:36;24.45;;;17.48;;
73113;SDS011;61301;51.956;5.876;2022-11-20T14:52:09;27.17;;;18.77;;
73113;SDS011;61301;51.956;5.876;2022-11-20T14:54:54;29.20;;;19.52;;
73113;SDS011;61301;51.956;5.876;2022-11-20T14:57:34;27.23;;;18.17;;
73113;SDS011;61301;51.956;5.876;2022-11-20T15:02:42;31.45;;;22.23;;
73113;SDS011;61301;51.956;5.876;2022-11-20T15:07:36;29.17;;;18.40;;
73113;SDS011;61301;51.956;5.876;2022-11-20T15:10:21;32.72;;;21.67;;
73113;SDS011;61301;51.956;5.876;2022-11-20T15:12:56;20.00;;;13.52;;
73113;SDS011;61301;51.956;5.876;2022-11-20T15:15:35;26.80;;;17.98;;
73113;SDS011;61301;51.956;5.876;2022-11-20T15:18:04;29.08;;;20.05;;
73113;SDS011;61301;51.956;5.876;2022-11-20T15:20:31;27.15;;;18.98;;
73113;SDS011;61301;51.956;5.876;2022-11-20T15:22:58;28.58;;;18.42;;
73113;SDS011;61301;51.956;5.876;2022-11-20T15:25:24;30.35;;;19.52;;
73113;SDS011;61301;51.956;5.876;2022-11-20T15:27:52;31.30;;;18.17;;
73113;SDS011;61301;51.956;5.876;2022-11-20T15:30:21;30.25;;;20.00;;
73113;SDS011;61301;51.956;5.876;2022-11-20T15:32:48;22.60;;;13.52;;
73113;SDS011;61301;51.956;5.876;2022-11-20T15:35:14;27.92;;;19.63;;
73113;SDS011;61301;51.956;5.876;2022-11-20T15:37:41;30.38;;;19.50;;
73113;SDS011;61301;51.956;5.876;2022-11-20T15:40:08;27.27;;;17.08;;
73113;SDS011;61301;51.956;5.876;2022-11-20T15:42:35;24.33;;;16.95;;
73113;SDS011;61301;51.956;5.876;2022-11-20T15:45:01;26.23;;;16.70;;
73113;SDS011;61301;51.956;5.876;2022-11-20T15:47:28;31.77;;;20.42;;
73113;SDS011;61301;51.956;5.876;2022-11-20T15:49:58;32.72;;;21.73;;
73113;SDS011;61301;51.956;5.876;2022-11-20T15:52:25;30.85;;;21.83;;
73113;SDS011;61301;51.956;5.876;2022-11-20T15:54:51;31.65;;;22.02;;
73113;SDS011;61301;51.956;5.876;2022-11-20T15:57:17;32.67;;;21.90;;
73113;SDS011;61301;51.956;5.876;2022-11-20T15:59:43;31.02;;;20.92;;
73113;SDS011;61301;51.956;5.876;2022-11-20T16:02:10;31.52;;;20.75;;
73113;SDS011;61301;51.956;5.876;2022-11-20T16:04:37;29.63;;;19.52;;
73113;SDS011;61301;51.956;5.876;2022-11-20T16:07:03;34.30;;;21.23;;
73113;SDS011;61301;51.956;5.876;2022-11-20T16:09:29;28.13;;;18.30;;
73113;SDS011;61301;51.956;5.876;2022-11-20T16:11:55;28.00;;;18.42;;
73113;SDS011;61301;51.956;5.876;2022-11-20T16:14:25;23.83;;;15.55;;
73113;SDS011;61301;51.956;5.876;2022-11-20T16:17:10;30.13;;;15.23;;
73113;SDS011;61301;51.956;5.876;2022-11-20T16:19:36;30.98;;;18.52;;
73113;SDS011;61301;51.956;5.876;2022-11-20T16:22:02;26.35;;;17.85;;
73113;SDS011;61301;51.956;5.876;2022-11-20T16:24:28;30.45;;;20.83;;
73113;SDS011;61301;51.956;5.876;2022-11-20T16:26:55;27.30;;;19.77;;
73113;SDS011;61301;51.956;5.876;2022-11-20T16:29:20;29.83;;;21.35;;
73113;SDS011;61301;51.956;5.876;2022-11-20T16:31:46;29.77;;;20.85;;
73113;SDS011;61301;51.956;5.876;2022-11-20T16:34:12;33.53;;;21.88;;
73113;SDS011;61301;51.956;5.876;2022-11-20T16:36:41;36.00;;;23.63;;
73113;SDS011;61301;51.956;5.876;2022-11-20T16:39:09;36.60;;;24.20;;